createdAt,value
2024-03-04T00:00:30.962Z,100.00
2024-03-04T00:02:59.066Z,100.00
2024-03-04T00:05:26.685Z,100.00
2024-03-04T00:07:54.238Z,100.00
2024-03-04T00:10:22.605Z,100.00
2024-03-04T00:12:50.145Z,100.00
2024-03-04T00:15:18.045Z,100.00
2024-03-04T00:17:45.741Z,100.00
2024-03-04T00:20:14.723Z,100.00
2024-03-04T00:22:43.882Z,100.00
2024-03-04T00:25:15.977Z,100.00
2024-03-04T00:27:49.634Z,100.00
2024-03-04T00:30:17.382Z,100.00
2024-03-04T00:32:45.903Z,100.00
2024-03-04T00:35:15.108Z,100.00
2024-03-04T00:37:43.689Z,100.00
2024-03-04T00:40:11.646Z,100.00
2024-03-04T00:42:39.939Z,100.00
2024-03-04T00:45:08.321Z,100.00
2024-03-04T00:47:36.221Z,100.00
2024-03-04T00:50:04.117Z,100.00
2024-03-04T00:52:32.827Z,100.00
2024-03-04T00:55:00.789Z,100.00
2024-03-04T00:57:28.391Z,100.00
2024-03-04T00:59:58.301Z,100.00
2024-03-04T01:02:25.827Z,100.00
2024-03-04T01:04:53.708Z,100.00
2024-03-04T01:07:21.053Z,100.00
2024-03-04T01:09:48.896Z,100.00
2024-03-04T01:12:16.882Z,100.00
2024-03-04T01:14:44.451Z,100.00
2024-03-04T01:17:18.319Z,100.00
2024-03-04T01:19:48.764Z,100.00
2024-03-04T01:22:18.044Z,100.00
2024-03-04T01:24:46.629Z,100.00
2024-03-04T01:27:14.723Z,100.00
2024-03-04T01:29:42.967Z,100.00
2024-03-04T01:32:11.443Z,100.00
2024-03-04T01:34:40.722Z,100.00
2024-03-04T01:37:09.269Z,100.00
2024-03-04T01:39:37.101Z,100.00
2024-03-04T01:42:04.798Z,100.00
2024-03-04T01:44:40.030Z,100.00
2024-03-04T01:47:12.173Z,100.00
2024-03-04T01:49:40.152Z,100.00
2024-03-04T01:52:08.378Z,100.00
2024-03-04T01:54:39.726Z,100.00
2024-03-04T01:57:08.147Z,100.00
2024-03-04T01:59:37.841Z,100.00
2024-03-04T02:02:09.994Z,100.00
2024-03-04T02:04:39.851Z,100.00
2024-03-04T02:07:08.280Z,100.00
2024-03-04T02:09:38.498Z,100.00
2024-03-04T02:12:06.807Z,100.00
2024-03-04T02:14:34.299Z,100.00
2024-03-04T02:17:02.076Z,100.00
2024-03-04T02:19:29.595Z,100.00
2024-03-04T02:22:02.761Z,100.00
2024-03-04T02:24:31.524Z,100.00
2024-03-04T02:26:59.075Z,100.00
2024-03-04T02:29:26.596Z,100.00
2024-03-04T02:31:54.245Z,100.00
2024-03-04T02:34:22.013Z,100.00
2024-03-04T02:36:49.847Z,100.00
2024-03-04T02:39:19.411Z,100.00
2024-03-04T02:41:46.985Z,100.00
2024-03-04T02:44:15.079Z,100.00
2024-03-04T02:46:42.779Z,100.00
2024-03-04T02:49:11.478Z,100.00
2024-03-04T02:51:38.832Z,100.00
2024-03-04T02:54:06.222Z,100.00
2024-03-04T02:56:34.111Z,100.00
2024-03-04T02:59:01.603Z,100.00
2024-03-04T03:01:29.108Z,100.00
2024-03-04T03:03:57.019Z,100.00
2024-03-04T03:06:24.713Z,100.00
2024-03-04T03:08:52.595Z,100.00
2024-03-04T03:11:20.928Z,100.00
2024-03-04T03:13:48.547Z,100.00
2024-03-04T03:16:20.732Z,100.00
2024-03-04T03:18:49.938Z,100.00
2024-03-04T03:21:17.289Z,100.00
2024-03-04T03:23:50.145Z,100.00
2024-03-04T03:26:17.745Z,100.00
2024-03-04T03:28:45.731Z,100.00
2024-03-04T03:31:13.346Z,100.00
2024-03-04T03:33:41.095Z,100.00
2024-03-04T03:36:09.090Z,100.00
2024-03-04T03:38:36.435Z,100.00
2024-03-04T03:41:05.388Z,100.00
2024-03-04T03:43:33.043Z,100.00
2024-03-04T03:46:00.680Z,100.00
2024-03-04T03:48:28.226Z,100.00
2024-03-04T03:50:56.443Z,100.00
2024-03-04T03:53:24.516Z,100.00
2024-03-04T03:55:53.035Z,100.00
2024-03-04T03:58:20.845Z,100.00
2024-03-04T04:00:48.387Z,100.00
2024-03-04T04:03:16.152Z,100.00
2024-03-04T04:05:43.522Z,100.00
2024-03-04T04:08:10.870Z,100.00
2024-03-04T04:10:38.362Z,100.00
2024-03-04T04:13:06.353Z,100.00
2024-03-04T04:15:34.219Z,100.00
2024-03-04T04:18:01.529Z,100.00
2024-03-04T04:20:29.190Z,100.00
2024-03-04T04:22:56.779Z,100.00
2024-03-04T04:25:24.201Z,100.00
2024-03-04T04:27:51.569Z,100.00
2024-03-04T04:30:18.927Z,100.00
2024-03-04T04:32:46.700Z,100.00
2024-03-04T04:35:14.368Z,100.00
2024-03-04T04:37:44.799Z,100.00
2024-03-04T04:40:12.763Z,100.00
2024-03-04T04:42:41.026Z,100.00
2024-03-04T04:45:08.794Z,100.00
2024-03-04T04:47:36.174Z,100.00
2024-03-04T04:50:04.755Z,100.00
2024-03-04T04:52:32.459Z,100.00
2024-03-04T04:55:00.058Z,100.00
2024-03-04T04:57:27.891Z,100.00
2024-03-04T04:59:55.371Z,100.00
2024-03-04T05:02:22.752Z,100.00
2024-03-04T05:04:57.103Z,100.00
2024-03-04T05:07:27.150Z,100.00
2024-03-04T05:09:55.531Z,100.00
2024-03-04T05:12:23.603Z,100.00
2024-03-04T05:14:51.285Z,100.00
2024-03-04T05:17:19.481Z,100.00
2024-03-04T05:19:47.511Z,100.00
2024-03-04T05:22:15.239Z,100.00
2024-03-04T05:24:42.832Z,100.00
2024-03-04T05:27:10.148Z,100.00
2024-03-04T05:29:37.771Z,100.00
2024-03-04T05:32:06.105Z,100.00
2024-03-04T05:34:34.103Z,100.00
2024-03-04T05:37:01.574Z,100.00
2024-03-04T05:39:33.234Z,100.00
2024-03-04T05:42:01.241Z,100.00
2024-03-04T05:44:28.704Z,100.00
2024-03-04T05:46:55.956Z,100.00
2024-03-04T05:49:23.412Z,100.00
2024-03-04T05:51:53.548Z,100.00
2024-03-04T05:54:20.671Z,100.00
2024-03-04T05:56:48.167Z,100.00
2024-03-04T05:59:16.022Z,100.00
2024-03-04T06:01:44.246Z,100.00
2024-03-04T06:04:12.127Z,100.00
2024-03-04T06:06:39.798Z,100.00
2024-03-04T06:09:09.771Z,99.87
2024-03-04T06:11:37.540Z,99.54
2024-03-04T06:14:05.077Z,99.02
2024-03-04T06:16:32.782Z,98.72
2024-03-04T06:19:00.380Z,98.32
2024-03-04T06:21:28.051Z,98.03
2024-03-04T06:23:55.396Z,97.63
2024-03-04T06:26:22.966Z,98.11
2024-03-04T06:28:50.272Z,98.37
2024-03-04T06:31:17.833Z,97.91
2024-03-04T06:33:52.523Z,98.06
2024-03-04T06:36:22.213Z,98.03
2024-03-04T06:38:51.681Z,98.01
2024-03-04T06:41:19.165Z,96.64
2024-03-04T06:43:46.823Z,96.62
2024-03-04T06:46:14.318Z,96.20
2024-03-04T06:48:42.144Z,95.81
2024-03-04T06:51:09.718Z,95.32
2024-03-04T06:53:37.103Z,95.73
2024-03-04T06:56:13.350Z,93.90
2024-03-04T06:58:40.683Z,94.09
2024-03-04T07:01:08.191Z,93.77
2024-03-04T07:03:35.539Z,92.29
2024-03-04T07:06:03.023Z,92.05
2024-03-04T07:08:33.521Z,91.22
2024-03-04T07:11:01.087Z,90.16
2024-03-04T07:13:28.534Z,90.73
2024-03-04T07:15:56.206Z,90.58
2024-03-04T07:18:23.835Z,90.50
2024-03-04T07:20:51.150Z,89.38
2024-03-04T07:23:18.487Z,88.98
2024-03-04T07:25:45.942Z,88.99
2024-03-04T07:28:14.560Z,89.48
2024-03-04T07:30:42.118Z,89.65
2024-03-04T07:33:11.256Z,89.91
2024-03-04T07:35:42.630Z,89.75
2024-03-04T07:38:11.876Z,88.73
2024-03-04T07:40:39.098Z,87.89
2024-03-04T07:43:06.458Z,87.41
2024-03-04T07:45:33.924Z,86.26
2024-03-04T07:48:01.655Z,86.23
2024-03-04T07:50:28.842Z,86.21
2024-03-04T07:52:56.073Z,85.94
2024-03-04T07:55:24.315Z,85.69
2024-03-04T07:57:51.822Z,84.99
2024-03-04T08:00:19.598Z,84.30
2024-03-04T08:02:46.912Z,84.12
2024-03-04T08:05:14.420Z,85.53
2024-03-04T08:07:42.264Z,86.74
2024-03-04T08:10:10.538Z,87.19
2024-03-04T08:12:38.327Z,86.89
2024-03-04T08:15:06.976Z,85.27
2024-03-04T08:17:34.864Z,85.28
2024-03-04T08:20:11.658Z,84.41
2024-03-04T08:22:45.071Z,82.26
2024-03-04T08:25:12.571Z,82.64
2024-03-04T08:27:40.126Z,82.10
2024-03-04T08:30:08.410Z,81.88
2024-03-04T08:32:35.764Z,80.61
2024-03-04T08:35:02.957Z,80.52
2024-03-04T08:37:30.740Z,80.04
2024-03-04T08:40:00.794Z,78.52
2024-03-04T08:42:28.213Z,78.96
2024-03-04T08:44:55.705Z,78.04
2024-03-04T08:47:23.938Z,76.94
2024-03-04T08:49:51.276Z,76.52
2024-03-04T08:52:18.462Z,76.19
2024-03-04T08:54:45.763Z,76.48
2024-03-04T08:57:13.543Z,75.82
2024-03-04T08:59:42.528Z,75.39
2024-03-04T09:02:12.227Z,74.36
2024-03-04T09:04:39.831Z,75.04
2024-03-04T09:07:08.585Z,76.48
2024-03-04T09:09:35.859Z,76.50
2024-03-04T09:12:05.326Z,76.07
2024-03-04T09:14:32.761Z,75.66
2024-03-04T09:17:01.640Z,75.05
2024-03-04T09:19:29.318Z,74.73
2024-03-04T09:21:57.243Z,75.26
2024-03-04T09:24:24.618Z,74.38
2024-03-04T09:26:52.083Z,74.68
2024-03-04T09:29:19.684Z,74.66
2024-03-04T09:31:46.990Z,73.69
2024-03-04T09:34:14.502Z,73.29
2024-03-04T09:36:41.760Z,73.77
2024-03-04T09:39:12.881Z,73.22
2024-03-04T09:41:42.119Z,73.15
2024-03-04T09:44:09.601Z,73.56
2024-03-04T09:46:41.657Z,73.46
2024-03-04T09:49:11.143Z,72.14
2024-03-04T09:51:39.899Z,73.18
2024-03-04T09:54:07.993Z,74.00
2024-03-04T09:56:35.624Z,73.36
2024-03-04T09:59:04.657Z,73.22
2024-03-04T10:01:33.489Z,72.93
2024-03-04T10:04:01.408Z,73.00
2024-03-04T10:06:29.223Z,73.54
2024-03-04T10:08:56.534Z,74.29
2024-03-04T10:11:23.968Z,73.71
2024-03-04T10:13:51.730Z,73.50
2024-03-04T10:16:19.289Z,73.29
2024-03-04T10:19:05.052Z,73.16
2024-03-04T10:21:33.662Z,72.64
2024-03-04T10:24:09.013Z,71.73
2024-03-04T10:26:44.106Z,70.69
2024-03-04T10:29:14.331Z,70.45
2024-03-04T10:31:55.859Z,68.92
2024-03-04T10:34:23.374Z,69.05
2024-03-04T10:36:52.796Z,69.15
2024-03-04T10:39:20.384Z,68.43
2024-03-04T10:41:48.818Z,68.40
2024-03-04T10:44:27.076Z,67.21
2024-03-04T10:46:58.949Z,67.41
2024-03-04T10:49:30.290Z,67.25
2024-03-04T10:52:08.092Z,66.90
2024-03-04T10:54:42.814Z,67.15
2024-03-04T10:57:31.749Z,66.58
2024-03-04T11:00:04.140Z,66.62
2024-03-04T11:03:01.729Z,65.73
2024-03-04T11:05:33.392Z,64.96
2024-03-04T11:08:44.212Z,64.66
2024-03-04T11:11:18.799Z,64.72
2024-03-04T11:13:49.581Z,64.40
2024-03-04T11:16:42.838Z,63.15
2024-03-04T11:19:29.678Z,63.99
2024-03-04T11:21:58.024Z,64.93
2024-03-04T11:24:26.459Z,65.43
2024-03-04T11:26:55.669Z,65.97
2024-03-04T11:29:25.740Z,65.02
2024-03-04T11:31:55.749Z,64.84
2024-03-04T11:34:24.120Z,64.45
2024-03-04T11:36:52.412Z,64.23
2024-03-04T11:39:26.210Z,64.82
2024-03-04T11:41:54.676Z,64.98
2024-03-04T11:44:30.048Z,64.88
2024-03-04T11:46:58.211Z,63.91
2024-03-04T11:49:31.288Z,64.63
2024-03-04T11:51:58.683Z,64.65
2024-03-04T11:54:36.160Z,64.96
2024-03-04T11:57:08.484Z,64.57
2024-03-04T11:59:37.140Z,64.98
2024-03-04T12:02:11.975Z,64.98
2024-03-04T12:04:42.259Z,64.18
2024-03-04T12:07:10.399Z,63.17
2024-03-04T12:09:50.847Z,63.83
2024-03-04T12:12:25.355Z,64.43
2024-03-04T12:14:53.605Z,64.16
2024-03-04T12:17:21.053Z,63.69
2024-03-04T12:19:59.183Z,64.47
2024-03-04T12:22:33.336Z,64.34
2024-03-04T12:25:06.913Z,62.71
2024-03-04T12:27:36.436Z,63.07
2024-03-04T12:30:21.069Z,63.80
2024-03-04T12:32:50.590Z,62.74
2024-03-04T12:35:27.779Z,63.65
2024-03-04T12:37:56.460Z,64.57
2024-03-04T12:40:26.298Z,64.94
2024-03-04T12:43:04.176Z,65.30
2024-03-04T12:45:33.786Z,65.10
2024-03-04T12:48:01.736Z,65.78
2024-03-04T12:50:31.538Z,65.58
2024-03-04T12:53:00.054Z,65.95
2024-03-04T12:55:28.982Z,66.44
2024-03-04T12:58:00.033Z,66.62
2024-03-04T13:00:29.042Z,67.93
2024-03-04T13:02:56.352Z,67.06
2024-03-04T13:05:24.107Z,66.91
2024-03-04T13:07:51.539Z,66.86
2024-03-04T13:10:18.966Z,65.99
2024-03-04T13:12:49.690Z,65.67
2024-03-04T13:15:17.114Z,65.73
2024-03-04T13:17:44.817Z,66.07
2024-03-04T13:20:16.694Z,65.66
2024-03-04T13:22:49.635Z,65.41
2024-03-04T13:25:18.295Z,65.88
2024-03-04T13:27:51.904Z,66.18
2024-03-04T13:30:20.025Z,66.37
2024-03-04T13:32:47.588Z,66.00
2024-03-04T13:35:15.526Z,67.22
2024-03-04T13:37:43.044Z,67.98
2024-03-04T13:40:12.319Z,66.65
2024-03-04T13:42:39.835Z,67.12
2024-03-04T13:45:08.690Z,68.04
2024-03-04T13:47:36.990Z,68.36
2024-03-04T13:50:04.887Z,68.84
2024-03-04T13:52:32.282Z,68.48
2024-03-04T13:55:01.287Z,68.20
2024-03-04T13:57:28.908Z,68.43
2024-03-04T13:59:56.266Z,68.48
2024-03-04T14:02:23.781Z,68.06
2024-03-04T14:04:51.196Z,68.14
2024-03-04T14:07:18.525Z,69.36
2024-03-04T14:09:46.452Z,70.46
2024-03-04T14:12:13.902Z,70.39
2024-03-04T14:14:41.402Z,70.67
2024-03-04T14:17:08.905Z,69.90
2024-03-04T14:19:36.181Z,70.40
2024-03-04T14:22:03.931Z,70.35
2024-03-04T14:24:31.676Z,70.46
2024-03-04T14:27:05.048Z,70.13
2024-03-04T14:29:33.027Z,69.81
2024-03-04T14:32:00.389Z,70.60
2024-03-04T14:34:30.516Z,70.64
2024-03-04T14:36:58.722Z,71.23
2024-03-04T14:39:26.077Z,70.82
2024-03-04T14:41:54.115Z,72.04
2024-03-04T14:44:21.363Z,71.48
2024-03-04T14:46:48.834Z,70.97
2024-03-04T14:49:16.266Z,71.43
2024-03-04T14:51:43.668Z,72.26
2024-03-04T14:54:11.938Z,71.94
2024-03-04T14:56:39.323Z,72.50
2024-03-04T14:59:06.484Z,72.48
2024-03-04T15:01:34.700Z,73.17
2024-03-04T15:04:02.108Z,73.14
2024-03-04T15:06:30.750Z,73.25
2024-03-04T15:08:58.286Z,73.48
2024-03-04T15:11:25.734Z,74.12
2024-03-04T15:13:55.607Z,75.44
2024-03-04T15:16:24.326Z,76.03
2024-03-04T15:18:51.734Z,76.16
2024-03-04T15:21:19.294Z,76.09
2024-03-04T15:23:47.033Z,76.65
2024-03-04T15:26:14.412Z,76.47
2024-03-04T15:28:42.815Z,76.18
2024-03-04T15:31:10.601Z,76.10
2024-03-04T15:33:38.584Z,76.30
2024-03-04T15:36:13.072Z,75.98
2024-03-04T15:38:45.082Z,75.49
2024-03-04T15:41:12.490Z,75.65
2024-03-04T15:43:39.932Z,75.31
2024-03-04T15:46:08.391Z,75.08
2024-03-04T15:48:36.797Z,75.42
2024-03-04T15:51:06.556Z,75.31
2024-03-04T15:53:35.388Z,75.82
2024-03-04T15:56:04.945Z,76.57
2024-03-04T15:58:32.590Z,76.98
2024-03-04T16:01:00.432Z,77.78
2024-03-04T16:03:30.609Z,77.83
2024-03-04T16:05:59.760Z,77.44
2024-03-04T16:08:27.348Z,76.87
2024-03-04T16:10:55.174Z,76.92
2024-03-04T16:13:22.766Z,77.01
2024-03-04T16:15:54.399Z,77.15
2024-03-04T16:18:23.572Z,77.91
2024-03-04T16:20:50.881Z,78.10
2024-03-04T16:23:18.313Z,77.48
2024-03-04T16:25:46.040Z,78.38
2024-03-04T16:28:13.723Z,78.40
2024-03-04T16:30:42.233Z,78.29
2024-03-04T16:33:10.757Z,78.43
2024-03-04T16:35:38.811Z,78.72
2024-03-04T16:38:06.619Z,78.55
2024-03-04T16:40:34.616Z,79.09
2024-03-04T16:43:04.289Z,79.46
2024-03-04T16:45:34.740Z,79.37
2024-03-04T16:48:03.698Z,79.19
2024-03-04T16:50:31.447Z,79.66
2024-03-04T16:52:59.008Z,80.54
2024-03-04T16:55:26.545Z,80.80
2024-03-04T16:57:54.035Z,80.97
2024-03-04T17:00:21.944Z,80.81
2024-03-04T17:02:49.623Z,80.76
2024-03-04T17:05:17.214Z,80.89
2024-03-04T17:07:49.446Z,80.91
2024-03-04T17:10:17.828Z,81.67
2024-03-04T17:12:47.454Z,81.40
2024-03-04T17:15:14.918Z,81.86
2024-03-04T17:17:42.432Z,82.30
2024-03-04T17:20:10.315Z,82.91
2024-03-04T17:22:38.458Z,82.81
2024-03-04T17:25:06.989Z,83.25
2024-03-04T17:27:35.582Z,83.28
2024-03-04T17:30:03.356Z,83.35
2024-03-04T17:32:31.067Z,83.71
2024-03-04T17:35:00.517Z,84.32
2024-03-04T17:37:28.355Z,85.07
2024-03-04T17:39:56.085Z,85.59
2024-03-04T17:42:25.512Z,86.59
2024-03-04T17:44:52.967Z,86.39
2024-03-04T17:47:21.876Z,86.95
2024-03-04T17:49:49.918Z,87.07
2024-03-04T17:52:18.128Z,86.97
2024-03-04T17:54:46.215Z,86.79
2024-03-04T17:57:14.198Z,88.05
2024-03-04T17:59:42.416Z,88.26
2024-03-04T18:02:11.080Z,88.98
2024-03-04T18:04:43.410Z,89.41
2024-03-04T18:07:10.940Z,89.39
2024-03-04T18:09:38.392Z,90.28
2024-03-04T18:12:06.392Z,91.26
2024-03-04T18:14:33.747Z,91.58
2024-03-04T18:17:02.728Z,91.81
2024-03-04T18:19:30.624Z,92.27
2024-03-04T18:22:00.310Z,92.34
2024-03-04T18:24:27.996Z,93.36
2024-03-04T18:26:55.374Z,93.14
2024-03-04T18:29:22.879Z,93.67
2024-03-04T18:31:51.052Z,93.69
2024-03-04T18:34:26.050Z,93.72
2024-03-04T18:36:54.339Z,94.00
2024-03-04T18:39:21.819Z,94.26
2024-03-04T18:41:50.665Z,95.35
2024-03-04T18:44:18.058Z,95.72
2024-03-04T18:46:46.038Z,95.55
2024-03-04T18:49:15.311Z,95.99
2024-03-04T18:51:42.967Z,96.35
2024-03-04T18:54:10.388Z,97.86
2024-03-04T18:56:38.308Z,99.14
2024-03-04T18:59:05.624Z,100.00
2024-03-04T19:01:33.490Z,100.00
2024-03-04T19:04:00.916Z,100.00
2024-03-04T19:06:28.358Z,100.00
2024-03-04T19:08:55.975Z,100.00
2024-03-04T19:11:23.974Z,100.00
2024-03-04T19:13:51.701Z,100.00
2024-03-04T19:16:19.255Z,100.00
2024-03-04T19:18:46.661Z,100.00
2024-03-04T19:21:22.122Z,100.00
2024-03-04T19:23:49.943Z,100.00
2024-03-04T19:26:21.010Z,100.00
2024-03-04T19:28:49.862Z,100.00
2024-03-04T19:31:22.731Z,100.00
2024-03-04T19:33:57.174Z,100.00
2024-03-04T19:36:24.969Z,100.00
2024-03-04T19:38:52.904Z,100.00
2024-03-04T19:41:25.273Z,100.00
2024-03-04T19:43:53.401Z,100.00
2024-03-04T19:46:23.243Z,100.00
2024-03-04T19:48:52.467Z,100.00
2024-03-04T19:51:23.315Z,100.00
2024-03-04T19:53:54.520Z,100.00
2024-03-04T19:56:22.200Z,100.00
2024-03-04T19:58:49.885Z,100.00
2024-03-04T20:01:17.889Z,100.00
2024-03-04T20:03:46.077Z,100.00
2024-03-04T20:06:13.909Z,100.00
2024-03-04T20:08:42.834Z,100.00
2024-03-04T20:11:12.710Z,100.00
2024-03-04T20:13:43.312Z,100.00
2024-03-04T20:16:13.992Z,100.00
2024-03-04T20:18:42.321Z,100.00
2024-03-04T20:21:12.943Z,100.00
2024-03-04T20:23:42.149Z,100.00
2024-03-04T20:26:09.819Z,100.00
2024-03-04T20:28:38.045Z,100.00
2024-03-04T20:31:05.954Z,100.00
2024-03-04T20:33:34.493Z,100.00
2024-03-04T20:36:02.567Z,100.00
2024-03-04T20:38:30.273Z,100.00
2024-03-04T20:40:58.530Z,100.00
2024-03-04T20:43:26.335Z,100.00
2024-03-04T20:45:53.732Z,100.00
2024-03-04T20:48:22.718Z,100.00
2024-03-04T20:50:50.088Z,100.00
2024-03-04T20:53:17.714Z,100.00
2024-03-04T20:55:45.413Z,100.00
2024-03-04T20:58:12.986Z,100.00
2024-03-04T21:00:40.980Z,100.00
2024-03-04T21:03:08.575Z,100.00
2024-03-04T21:05:37.575Z,100.00
2024-03-04T21:08:07.138Z,100.00
2024-03-04T21:10:34.691Z,100.00
2024-03-04T21:13:02.428Z,100.00
2024-03-04T21:15:30.061Z,100.00
2024-03-04T21:17:58.979Z,100.00
2024-03-04T21:20:27.814Z,100.00
2024-03-04T21:22:56.195Z,100.00
2024-03-04T21:25:23.966Z,100.00
2024-03-04T21:27:53.964Z,100.00
2024-03-04T21:30:22.942Z,100.00
2024-03-04T21:32:50.928Z,100.00
2024-03-04T21:35:18.516Z,100.00
2024-03-04T21:37:47.013Z,100.00
2024-03-04T21:40:15.316Z,100.00
2024-03-04T21:42:46.142Z,100.00
2024-03-04T21:45:14.110Z,100.00
2024-03-04T21:47:44.278Z,100.00
2024-03-04T21:50:12.451Z,100.00
2024-03-04T21:55:27.565Z,100.00
2024-03-04T21:57:54.972Z,100.00
2024-03-04T22:00:24.013Z,100.00
2024-03-04T22:02:51.855Z,100.00
2024-03-04T22:05:19.462Z,100.00
2024-03-04T22:07:48.833Z,100.00
2024-03-04T22:10:16.415Z,100.00
2024-03-04T22:12:44.242Z,100.00
2024-03-04T22:15:11.821Z,100.00
2024-03-04T22:17:41.346Z,100.00
2024-03-04T22:20:14.137Z,100.00
2024-03-04T22:22:42.303Z,100.00
2024-03-04T22:25:10.784Z,100.00
2024-03-04T22:27:38.416Z,100.00
2024-03-04T22:30:06.284Z,100.00
2024-03-04T22:32:33.729Z,100.00
2024-03-04T22:35:02.042Z,100.00
2024-03-04T22:37:30.574Z,100.00
2024-03-04T22:39:57.839Z,100.00
2024-03-04T22:42:25.562Z,100.00
2024-03-04T22:44:53.168Z,100.00
2024-03-04T22:47:22.567Z,100.00
2024-03-04T22:49:53.393Z,100.00
2024-03-04T22:52:25.027Z,100.00
2024-03-04T22:54:52.184Z,100.00
2024-03-04T22:57:19.441Z,100.00
2024-03-04T22:59:46.830Z,100.00
2024-03-04T23:02:14.609Z,100.00
2024-03-04T23:04:42.466Z,100.00
2024-03-04T23:07:10.233Z,100.00
2024-03-04T23:09:39.514Z,100.00
2024-03-04T23:12:10.382Z,100.00
2024-03-04T23:14:40.883Z,100.00
2024-03-04T23:17:08.092Z,100.00
2024-03-04T23:19:36.031Z,100.00
2024-03-04T23:22:03.812Z,100.00
2024-03-04T23:24:31.309Z,100.00
2024-03-04T23:26:58.869Z,100.00
2024-03-04T23:29:26.567Z,100.00
2024-03-04T23:31:54.213Z,100.00
2024-03-04T23:34:23.113Z,100.00
2024-03-04T23:36:54.036Z,100.00
2024-03-04T23:39:24.602Z,100.00
2024-03-04T23:41:52.436Z,100.00
2024-03-04T23:44:21.172Z,100.00
2024-03-04T23:46:49.127Z,100.00
2024-03-04T23:49:16.590Z,100.00
2024-03-04T23:51:44.091Z,100.00
2024-03-04T23:54:11.372Z,100.00
2024-03-04T23:56:42.940Z,100.00
2024-03-04T23:59:10.641Z,100.00
